Aérodrome :
LOGIN :

S'inscrire | Disclaimer

   EN    FR    IT 

 










Légende :    VFR   VFR Marginal   IFR   IFR Intensif   IFR Très Intensif
Visi : 
Plafond : 
>= 8 km
>= 3000ft
5 à 8 km
1000 à 3000 ft
1500m à 5 km
500 à 1000 ft
800 à 1500m
200 à 500 ft
< 800m
< 200 ft
Symboles :   Orages  Brouillard  Fortes neiges  Fortes précipitations  Vent > 20 kt
SIGMETs :   Divers  Orages  Givrage  Turbulence  Onde Orograph.  Cendres Volcan.






- Altitude de l'aérodrome : 458 ft


LFSI - St-Dizier

DERNIER METAR :
  • 272130Z AUTO 26007KT 9999 BKN033 BKN045 OVC056 04/M00 Q1014

METARs EXPIRÉS :
  • 272100Z AUTO 28010KT 9999 BKN030 BKN058 04/M00 Q1014
  • 272030Z AUTO 29016KT 9999 SCT034 OVC054 05/M00 Q1013
  • 272000Z AUTO 29017KT 9999 BKN032 OVC052 05/M00 Q1011
  • 271930Z AUTO 29015KT 9999 BKN028 OVC034 05/00 Q1010
  • 271900Z AUTO 29020KT 9999 BKN028 OVC038 04/01 Q1009

TAF TAF LFSI
Valide du 27 à 21h jusqu'au 28 à 21h UTC


272000Z 2721/2821 28012G25KT 9999 BKN030
TEMPO 2803/2809 24005KT 3000 BR
BECMG 2810/2812 18012G25KT
BECMG 2816/2818 RA SCT008 BKN015



MET'MAP, la Météo Aéronautique d'un coup d'oeil ! - Copyright ORBIFLY Décembre 2007 - Disclaimer

ORBIFLY MET'MAP TEAM :

Programmation & Développement : Alexandra Zaïnal
Sur une idée originale de : Baudouin d'Aumeries
Assistance à la programmation : Marc-Olivier Méhu
Soutien technique & logistique : Manuel Goepfert

Contact : metmap@orbifly.com




SOURCES & CREDITS :

   NOAA